sensor_id;sensor_type;location;lat;lon;timestamp;P1;durP1;ratioP1;P2;durP2;ratioP2
55190;SDS011;41070;50.360;18.742;2024-03-23T00:57:09;24.00;;;13.60;;
55190;SDS011;41070;50.360;18.742;2024-03-23T01:12:25;28.80;;;14.80;;
55190;SDS011;41070;50.360;18.742;2024-03-23T01:18:40;31.50;;;16.70;;
55190;SDS011;41070;50.360;18.742;2024-03-23T01:21:46;27.40;;;16.50;;
55190;SDS011;41070;50.360;18.742;2024-03-23T01:24:54;26.80;;;14.20;;
55190;SDS011;41070;50.360;18.742;2024-03-23T01:37:21;30.30;;;15.60;;
55190;SDS011;41070;50.360;18.742;2024-03-23T01:46:44;32.40;;;15.40;;
55190;SDS011;41070;50.360;18.742;2024-03-23T01:49:52;27.30;;;15.60;;
55190;SDS011;41070;50.360;18.742;2024-03-23T01:56:06;31.20;;;17.20;;
55190;SDS011;41070;50.360;18.742;2024-03-23T01:59:13;27.60;;;14.60;;
55190;SDS011;41070;50.360;18.742;2024-03-23T02:02:19;27.30;;;15.50;;
55190;SDS011;41070;50.360;18.742;2024-03-23T02:05:28;29.80;;;16.80;;
55190;SDS011;41070;50.360;18.742;2024-03-23T02:08:35;26.90;;;16.00;;
55190;SDS011;41070;50.360;18.742;2024-03-23T02:11:42;32.90;;;21.80;;
55190;SDS011;41070;50.360;18.742;2024-03-23T02:14:48;34.40;;;20.70;;
55190;SDS011;41070;50.360;18.742;2024-03-23T02:17:55;32.40;;;18.10;;
55190;SDS011;41070;50.360;18.742;2024-03-23T02:21:02;29.70;;;15.70;;
55190;SDS011;41070;50.360;18.742;2024-03-23T02:27:16;29.80;;;17.10;;
55190;SDS011;41070;50.360;18.742;2024-03-23T02:33:28;31.70;;;16.70;;
55190;SDS011;41070;50.360;18.742;2024-03-23T02:36:35;23.50;;;12.90;;
55190;SDS011;41070;50.360;18.742;2024-03-23T02:39:42;27.20;;;15.70;;
55190;SDS011;41070;50.360;18.742;2024-03-23T02:42:49;29.80;;;14.60;;
55190;SDS011;41070;50.360;18.742;2024-03-23T02:45:54;30.20;;;16.30;;
55190;SDS011;41070;50.360;18.742;2024-03-23T02:49:01;30.00;;;15.70;;
55190;SDS011;41070;50.360;18.742;2024-03-23T02:52:08;29.10;;;15.50;;
55190;SDS011;41070;50.360;18.742;2024-03-23T02:55:14;28.60;;;15.70;;
55190;SDS011;41070;50.360;18.742;2024-03-23T02:58:20;29.10;;;15.90;;
55190;SDS011;41070;50.360;18.742;2024-03-23T03:01:27;30.00;;;16.00;;
55190;SDS011;41070;50.360;18.742;2024-03-23T03:04:34;23.80;;;15.30;;
55190;SDS011;41070;50.360;18.742;2024-03-23T03:13:57;28.80;;;15.30;;
55190;SDS011;41070;50.360;18.742;2024-03-23T03:17:04;29.80;;;14.80;;
55190;SDS011;41070;50.360;18.742;2024-03-23T03:23:18;29.90;;;17.90;;
55190;SDS011;41070;50.360;18.742;2024-03-23T03:26:25;28.60;;;16.40;;
55190;SDS011;41070;50.360;18.742;2024-03-23T03:32:44;26.00;;;15.10;;
55190;SDS011;41070;50.360;18.742;2024-03-23T03:35:51;36.00;;;21.10;;
55190;SDS011;41070;50.360;18.742;2024-03-23T03:38:58;32.10;;;18.30;;
55190;SDS011;41070;50.360;18.742;2024-03-23T03:48:10;25.70;;;13.60;;
55190;SDS011;41070;50.360;18.742;2024-03-23T03:51:17;27.40;;;14.60;;
55190;SDS011;41070;50.360;18.742;2024-03-23T03:54:24;26.50;;;14.80;;
55190;SDS011;41070;50.360;18.742;2024-03-23T03:57:31;28.70;;;14.40;;
55190;SDS011;41070;50.360;18.742;2024-03-23T04:03:45;27.80;;;16.20;;
55190;SDS011;41070;50.360;18.742;2024-03-23T04:10:01;19.20;;;10.40;;
55190;SDS011;41070;50.360;18.742;2024-03-23T04:16:00;23.90;;;12.90;;
55190;SDS011;41070;50.360;18.742;2024-03-23T04:19:07;26.30;;;14.70;;
55190;SDS011;41070;50.360;18.742;2024-03-23T04:22:14;27.10;;;14.70;;
55190;SDS011;41070;50.360;18.742;2024-03-23T04:25:21;25.10;;;12.60;;
55190;SDS011;41070;50.360;18.742;2024-03-23T04:31:17;24.50;;;13.80;;
55190;SDS011;41070;50.360;18.742;2024-03-23T04:34:24;27.20;;;15.00;;
55190;SDS011;41070;50.360;18.742;2024-03-23T04:40:38;30.90;;;16.90;;
55190;SDS011;41070;50.360;18.742;2024-03-23T04:43:45;36.00;;;19.50;;
55190;SDS011;41070;50.360;18.742;2024-03-23T04:46:52;34.70;;;19.60;;
55190;SDS011;41070;50.360;18.742;2024-03-23T04:53:06;34.20;;;19.60;;
55190;SDS011;41070;50.360;18.742;2024-03-23T04:59:19;28.10;;;16.90;;
55190;SDS011;41070;50.360;18.742;2024-03-23T05:02:26;32.10;;;16.80;;
55190;SDS011;41070;50.360;18.742;2024-03-23T05:05:33;32.80;;;16.50;;
55190;SDS011;41070;50.360;18.742;2024-03-23T05:11:46;35.30;;;17.40;;
55190;SDS011;41070;50.360;18.742;2024-03-23T05:14:53;34.00;;;18.20;;
55190;SDS011;41070;50.360;18.742;2024-03-23T05:18:00;36.10;;;18.70;;
55190;SDS011;41070;50.360;18.742;2024-03-23T05:21:07;31.70;;;16.10;;
55190;SDS011;41070;50.360;18.742;2024-03-23T05:24:14;28.40;;;15.90;;
55190;SDS011;41070;50.360;18.742;2024-03-23T05:27:20;31.90;;;17.60;;
55190;SDS011;41070;50.360;18.742;2024-03-23T05:30:27;34.50;;;17.90;;
55190;SDS011;41070;50.360;18.742;2024-03-23T05:33:35;30.70;;;16.30;;
55190;SDS011;41070;50.360;18.742;2024-03-23T05:36:41;30.10;;;15.80;;
55190;SDS011;41070;50.360;18.742;2024-03-23T05:42:48;27.60;;;14.80;;
55190;SDS011;41070;50.360;18.742;2024-03-23T05:45:56;26.20;;;13.60;;
55190;SDS011;41070;50.360;18.742;2024-03-23T05:49:02;26.10;;;13.80;;
55190;SDS011;41070;50.360;18.742;2024-03-23T05:51:45;22.60;;;12.10;;
55190;SDS011;41070;50.360;18.742;2024-03-23T05:55:18;27.00;;;13.80;;
55190;SDS011;41070;50.360;18.742;2024-03-23T05:58:25;20.60;;;11.90;;
55190;SDS011;41070;50.360;18.742;2024-03-23T06:01:32;24.70;;;13.40;;
55190;SDS011;41070;50.360;18.742;2024-03-23T06:04:31;21.10;;;12.40;;
55190;SDS011;41070;50.360;18.742;2024-03-23T06:07:38;20.00;;;11.50;;
55190;SDS011;41070;50.360;18.742;2024-03-23T06:10:38;22.30;;;11.90;;
55190;SDS011;41070;50.360;18.742;2024-03-23T06:13:45;23.80;;;12.50;;
55190;SDS011;41070;50.360;18.742;2024-03-23T06:16:52;23.90;;;13.70;;
55190;SDS011;41070;50.360;18.742;2024-03-23T06:23:06;25.10;;;13.30;;
55190;SDS011;41070;50.360;18.742;2024-03-23T06:26:06;27.50;;;13.90;;
55190;SDS011;41070;50.360;18.742;2024-03-23T06:29:13;27.20;;;13.20;;
55190;SDS011;41070;50.360;18.742;2024-03-23T06:32:20;21.80;;;13.40;;
55190;SDS011;41070;50.360;18.742;2024-03-23T06:38:22;24.30;;;12.50;;
55190;SDS011;41070;50.360;18.742;2024-03-23T06:48:05;20.90;;;9.80;;
55190;SDS011;41070;50.360;18.742;2024-03-23T06:54:14;23.40;;;13.60;;
55190;SDS011;41070;50.360;18.742;2024-03-23T06:57:21;24.00;;;13.40;;
55190;SDS011;41070;50.360;18.742;2024-03-23T07:00:28;22.50;;;11.90;;
55190;SDS011;41070;50.360;18.742;2024-03-23T07:03:35;18.20;;;10.40;;
55190;SDS011;41070;50.360;18.742;2024-03-23T07:06:43;20.80;;;11.70;;
55190;SDS011;41070;50.360;18.742;2024-03-23T07:16:03;18.90;;;10.30;;
55190;SDS011;41070;50.360;18.742;2024-03-23T07:19:10;19.50;;;10.60;;
55190;SDS011;41070;50.360;18.742;2024-03-23T07:22:17;13.80;;;9.20;;
55190;SDS011;41070;50.360;18.742;2024-03-23T07:46:53;12.90;;;8.40;;
55190;SDS011;41070;50.360;18.742;2024-03-23T07:50:00;12.20;;;7.70;;
55190;SDS011;41070;50.360;18.742;2024-03-23T07:53:07;13.90;;;7.10;;
55190;SDS011;41070;50.360;18.742;2024-03-23T07:59:30;11.60;;;6.90;;
55190;SDS011;41070;50.360;18.742;2024-03-23T08:02:37;10.70;;;6.20;;
55190;SDS011;41070;50.360;18.742;2024-03-23T08:05:44;10.40;;;6.10;;
55190;SDS011;41070;50.360;18.742;2024-03-23T08:08:52;10.20;;;6.30;;
55190;SDS011;41070;50.360;18.742;2024-03-23T08:11:51;10.90;;;6.00;;
55190;SDS011;41070;50.360;18.742;2024-03-23T08:14:58;9.40;;;5.60;;
55190;SDS011;41070;50.360;18.742;2024-03-23T08:18:04;9.00;;;5.10;;
55190;SDS011;41070;50.360;18.742;2024-03-23T08:24:18;8.80;;;5.30;;
55190;SDS011;41070;50.360;18.742;2024-03-23T08:27:25;10.10;;;5.70;;
55190;SDS011;41070;50.360;18.742;2024-03-23T08:30:34;9.20;;;5.40;;
55190;SDS011;41070;50.360;18.742;2024-03-23T08:39:51;8.30;;;5.00;;
55190;SDS011;41070;50.360;18.742;2024-03-23T08:46:05;8.70;;;6.00;;
55190;SDS011;41070;50.360;18.742;2024-03-23T08:49:11;9.60;;;5.30;;
55190;SDS011;41070;50.360;18.742;2024-03-23T08:52:18;9.20;;;5.40;;
55190;SDS011;41070;50.360;18.742;2024-03-23T08:55:25;9.30;;;5.20;;
55190;SDS011;41070;50.360;18.742;2024-03-23T09:07:46;8.40;;;4.70;;
55190;SDS011;41070;50.360;18.742;2024-03-23T09:10:52;7.30;;;4.40;;
55190;SDS011;41070;50.360;18.742;2024-03-23T09:13:59;6.70;;;4.80;;
55190;SDS011;41070;50.360;18.742;2024-03-23T09:17:06;9.10;;;5.00;;
55190;SDS011;41070;50.360;18.742;2024-03-23T09:23:20;9.20;;;4.40;;
55190;SDS011;41070;50.360;18.742;2024-03-23T09:26:27;8.20;;;4.60;;
55190;SDS011;41070;50.360;18.742;2024-03-23T09:32:33;9.90;;;5.80;;
55190;SDS011;41070;50.360;18.742;2024-03-23T09:35:41;7.90;;;5.10;;
55190;SDS011;41070;50.360;18.742;2024-03-23T09:38:40;8.30;;;5.10;;
55190;SDS011;41070;50.360;18.742;2024-03-23T09:41:45;7.80;;;4.50;;
55190;SDS011;41070;50.360;18.742;2024-03-23T09:47:59;9.90;;;5.00;;
55190;SDS011;41070;50.360;18.742;2024-03-23T10:25:06;9.00;;;5.30;;
55190;SDS011;41070;50.360;18.742;2024-03-23T10:28:05;11.00;;;5.40;;
55190;SDS011;41070;50.360;18.742;2024-03-23T10:30:48;8.10;;;4.70;;
55190;SDS011;41070;50.360;18.742;2024-03-23T10:37:27;8.80;;;4.60;;
55190;SDS011;41070;50.360;18.742;2024-03-23T10:40:09;8.20;;;4.50;;
55190;SDS011;41070;50.360;18.742;2024-03-23T10:49:57;8.20;;;4.10;;
55190;SDS011;41070;50.360;18.742;2024-03-23T10:53:04;6.00;;;4.00;;
55190;SDS011;41070;50.360;18.742;2024-03-23T11:08:35;8.00;;;4.20;;
55190;SDS011;41070;50.360;18.742;2024-03-23T11:24:41;8.20;;;3.60;;
55190;SDS011;41070;50.360;18.742;2024-03-23T11:27:50;6.00;;;2.90;;
55190;SDS011;41070;50.360;18.742;2024-03-23T11:33:28;5.40;;;3.30;;
55190;SDS011;41070;50.360;18.742;2024-03-23T11:36:47;5.80;;;3.10;;
55190;SDS011;41070;50.360;18.742;2024-03-23T11:39:53;5.60;;;2.90;;
55190;SDS011;41070;50.360;18.742;2024-03-23T11:52:19;7.20;;;2.60;;
55190;SDS011;41070;50.360;18.742;2024-03-23T11:55:01;3.70;;;2.30;;
55190;SDS011;41070;50.360;18.742;2024-03-23T12:19:20;3.80;;;2.20;;
55190;SDS011;41070;50.360;18.742;2024-03-23T12:31:16;2.20;;;1.50;;
55190;SDS011;41070;50.360;18.742;2024-03-23T12:37:55;1.90;;;1.60;;
55190;SDS011;41070;50.360;18.742;2024-03-23T12:44:23;3.60;;;2.10;;
55190;SDS011;41070;50.360;18.742;2024-03-23T12:50:29;3.70;;;2.10;;
55190;SDS011;41070;50.360;18.742;2024-03-23T12:53:36;4.20;;;2.00;;
55190;SDS011;41070;50.360;18.742;2024-03-23T12:56:42;4.00;;;2.20;;
55190;SDS011;41070;50.360;18.742;2024-03-23T12:59:10;3.10;;;1.90;;
55190;SDS011;41070;50.360;18.742;2024-03-23T13:02:43;5.10;;;3.00;;
55190;SDS011;41070;50.360;18.742;2024-03-23T13:08:57;5.00;;;2.90;;
55190;SDS011;41070;50.360;18.742;2024-03-23T13:18:02;3.40;;;1.80;;
55190;SDS011;41070;50.360;18.742;2024-03-23T13:21:09;3.20;;;1.60;;
55190;SDS011;41070;50.360;18.742;2024-03-23T13:27:23;6.90;;;1.50;;
55190;SDS011;41070;50.360;18.742;2024-03-23T13:30:23;1.80;;;1.20;;
55190;SDS011;41070;50.360;18.742;2024-03-23T13:33:30;4.40;;;1.50;;
55190;SDS011;41070;50.360;18.742;2024-03-23T13:36:37;3.50;;;1.30;;
55190;SDS011;41070;50.360;18.742;2024-03-23T13:42:52;2.20;;;1.00;;
55190;SDS011;41070;50.360;18.742;2024-03-23T13:45:58;1.70;;;0.90;;
55190;SDS011;41070;50.360;18.742;2024-03-23T13:49:05;1.70;;;0.90;;
55190;SDS011;41070;50.360;18.742;2024-03-23T13:58:23;2.80;;;1.20;;
55190;SDS011;41070;50.360;18.742;2024-03-23T14:01:31;2.90;;;1.20;;
55190;SDS011;41070;50.360;18.742;2024-03-23T14:04:38;1.20;;;1.10;;
55190;SDS011;41070;50.360;18.742;2024-03-23T14:07:21;1.90;;;0.90;;
55190;SDS011;41070;50.360;18.742;2024-03-23T14:10:34;1.70;;;1.10;;
55190;SDS011;41070;50.360;18.742;2024-03-23T14:13:44;3.10;;;2.10;;
55190;SDS011;41070;50.360;18.742;2024-03-23T14:16:54;1.50;;;1.00;;
55190;SDS011;41070;50.360;18.742;2024-03-23T14:20:01;2.50;;;1.10;;
55190;SDS011;41070;50.360;18.742;2024-03-23T14:23:11;1.70;;;1.00;;
55190;SDS011;41070;50.360;18.742;2024-03-23T14:26:18;2.50;;;1.10;;
55190;SDS011;41070;50.360;18.742;2024-03-23T14:32:33;1.80;;;1.10;;
55190;SDS011;41070;50.360;18.742;2024-03-23T14:38:52;1.80;;;1.00;;
55190;SDS011;41070;50.360;18.742;2024-03-23T14:41:59;1.10;;;0.80;;
55190;SDS011;41070;50.360;18.742;2024-03-23T14:44:42;1.00;;;0.90;;
55190;SDS011;41070;50.360;18.742;2024-03-23T14:48:18;2.10;;;1.00;;
55190;SDS011;41070;50.360;18.742;2024-03-23T14:51:36;1.00;;;0.70;;
55190;SDS011;41070;50.360;18.742;2024-03-23T14:54:46;3.20;;;1.10;;
55190;SDS011;41070;50.360;18.742;2024-03-23T14:57:58;2.20;;;1.00;;
55190;SDS011;41070;50.360;18.742;2024-03-23T15:04:12;1.40;;;0.90;;
55190;SDS011;41070;50.360;18.742;2024-03-23T15:07:19;1.40;;;1.10;;
55190;SDS011;41070;50.360;18.742;2024-03-23T15:10:28;1.70;;;1.20;;
55190;SDS011;41070;50.360;18.742;2024-03-23T15:13:38;1.80;;;1.20;;
55190;SDS011;41070;50.360;18.742;2024-03-23T15:17:08;2.00;;;1.20;;
55190;SDS011;41070;50.360;18.742;2024-03-23T15:20:19;3.60;;;1.10;;
55190;SDS011;41070;50.360;18.742;2024-03-23T15:23:27;4.00;;;1.90;;
55190;SDS011;41070;50.360;18.742;2024-03-23T15:29:48;8.90;;;3.80;;
55190;SDS011;41070;50.360;18.742;2024-03-23T15:32:56;5.60;;;3.00;;
55190;SDS011;41070;50.360;18.742;2024-03-23T15:36:05;6.90;;;3.80;;
55190;SDS011;41070;50.360;18.742;2024-03-23T15:39:19;6.30;;;3.60;;
55190;SDS011;41070;50.360;18.742;2024-03-23T15:42:24;12.20;;;6.30;;
55190;SDS011;41070;50.360;18.742;2024-03-23T15:45:31;13.50;;;6.40;;
55190;SDS011;41070;50.360;18.742;2024-03-23T15:48:38;15.40;;;7.20;;
55190;SDS011;41070;50.360;18.742;2024-03-23T15:51:45;12.90;;;6.40;;
55190;SDS011;41070;50.360;18.742;2024-03-23T15:54:54;6.20;;;3.30;;
55190;SDS011;41070;50.360;18.742;2024-03-23T15:58:03;4.60;;;3.30;;
55190;SDS011;41070;50.360;18.742;2024-03-23T16:04:16;5.10;;;3.50;;
55190;SDS011;41070;50.360;18.742;2024-03-23T16:06:59;4.10;;;2.80;;
55190;SDS011;41070;50.360;18.742;2024-03-23T16:10:26;2.70;;;2.20;;
55190;SDS011;41070;50.360;18.742;2024-03-23T16:16:40;2.70;;;1.90;;
55190;SDS011;41070;50.360;18.742;2024-03-23T16:19:47;3.70;;;2.30;;
55190;SDS011;41070;50.360;18.742;2024-03-23T16:22:55;3.10;;;2.30;;
55190;SDS011;41070;50.360;18.742;2024-03-23T16:26:02;3.30;;;1.90;;
55190;SDS011;41070;50.360;18.742;2024-03-23T16:32:17;3.20;;;2.00;;
55190;SDS011;41070;50.360;18.742;2024-03-23T16:35:23;2.40;;;1.90;;
55190;SDS011;41070;50.360;18.742;2024-03-23T16:38:30;4.00;;;2.30;;
55190;SDS011;41070;50.360;18.742;2024-03-23T16:47:57;2.50;;;1.70;;
55190;SDS011;41070;50.360;18.742;2024-03-23T16:51:04;4.00;;;1.80;;
55190;SDS011;41070;50.360;18.742;2024-03-23T16:54:12;2.80;;;1.90;;
55190;SDS011;41070;50.360;18.742;2024-03-23T16:57:18;2.60;;;2.00;;
55190;SDS011;41070;50.360;18.742;2024-03-23T17:03:34;1.90;;;1.50;;
55190;SDS011;41070;50.360;18.742;2024-03-23T17:06:41;3.80;;;1.90;;
55190;SDS011;41070;50.360;18.742;2024-03-23T17:09:50;3.90;;;2.20;;
55190;SDS011;41070;50.360;18.742;2024-03-23T17:12:56;3.90;;;2.40;;
55190;SDS011;41070;50.360;18.742;2024-03-23T17:16:03;5.00;;;1.80;;
55190;SDS011;41070;50.360;18.742;2024-03-23T17:19:13;5.30;;;2.70;;
55190;SDS011;41070;50.360;18.742;2024-03-23T17:22:20;6.10;;;2.80;;
55190;SDS011;41070;50.360;18.742;2024-03-23T17:25:27;6.20;;;3.70;;
55190;SDS011;41070;50.360;18.742;2024-03-23T17:28:33;3.50;;;2.50;;
55190;SDS011;41070;50.360;18.742;2024-03-23T17:31:16;5.00;;;3.10;;
55190;SDS011;41070;50.360;18.742;2024-03-23T17:34:53;7.70;;;3.60;;
55190;SDS011;41070;50.360;18.742;2024-03-23T17:44:27;4.00;;;2.60;;
55190;SDS011;41070;50.360;18.742;2024-03-23T17:47:35;5.80;;;2.60;;
55190;SDS011;41070;50.360;18.742;2024-03-23T17:50:41;2.60;;;2.10;;
55190;SDS011;41070;50.360;18.742;2024-03-23T17:53:48;3.50;;;2.50;;
55190;SDS011;41070;50.360;18.742;2024-03-23T17:56:55;3.90;;;2.60;;
55190;SDS011;41070;50.360;18.742;2024-03-23T18:00:02;4.40;;;2.40;;
55190;SDS011;41070;50.360;18.742;2024-03-23T18:03:09;3.70;;;2.20;;
55190;SDS011;41070;50.360;18.742;2024-03-23T18:06:16;2.70;;;2.00;;
55190;SDS011;41070;50.360;18.742;2024-03-23T18:09:23;3.10;;;2.20;;
55190;SDS011;41070;50.360;18.742;2024-03-23T18:12:31;4.00;;;2.60;;
55190;SDS011;41070;50.360;18.742;2024-03-23T18:15:38;4.40;;;3.30;;
55190;SDS011;41070;50.360;18.742;2024-03-23T18:18:45;5.00;;;3.50;;
55190;SDS011;41070;50.360;18.742;2024-03-23T18:21:52;4.90;;;3.30;;
55190;SDS011;41070;50.360;18.742;2024-03-23T18:27:58;4.80;;;3.00;;
55190;SDS011;41070;50.360;18.742;2024-03-23T18:43:26;3.60;;;3.20;;
55190;SDS011;41070;50.360;18.742;2024-03-23T18:45:56;3.40;;;2.70;;
55190;SDS011;41070;50.360;18.742;2024-03-23T18:48:24;4.80;;;3.60;;
55190;SDS011;41070;50.360;18.742;2024-03-23T18:51:01;3.90;;;3.00;;
55190;SDS011;41070;50.360;18.742;2024-03-23T18:53:31;4.80;;;3.20;;
55190;SDS011;41070;50.360;18.742;2024-03-23T18:56:03;4.10;;;3.20;;
55190;SDS011;41070;50.360;18.742;2024-03-23T18:59:10;4.70;;;2.60;;
55190;SDS011;41070;50.360;18.742;2024-03-23T19:01:52;2.90;;;2.20;;
55190;SDS011;41070;50.360;18.742;2024-03-23T19:04:22;2.90;;;2.20;;
55190;SDS011;41070;50.360;18.742;2024-03-23T19:06:57;4.50;;;2.00;;
55190;SDS011;41070;50.360;18.742;2024-03-23T19:09:31;3.40;;;2.50;;
55190;SDS011;41070;50.360;18.742;2024-03-23T19:12:05;2.30;;;1.90;;
55190;SDS011;41070;50.360;18.742;2024-03-23T19:14:46;2.30;;;1.80;;
55190;SDS011;41070;50.360;18.742;2024-03-23T19:17:15;1.70;;;1.30;;
55190;SDS011;41070;50.360;18.742;2024-03-23T19:19:46;2.10;;;1.50;;
55190;SDS011;41070;50.360;18.742;2024-03-23T19:22:16;3.50;;;2.00;;
55190;SDS011;41070;50.360;18.742;2024-03-23T19:24:53;2.80;;;1.50;;
55190;SDS011;41070;50.360;18.742;2024-03-23T19:27:47;3.50;;;1.80;;
55190;SDS011;41070;50.360;18.742;2024-03-23T19:30:16;4.10;;;1.80;;
55190;SDS011;41070;50.360;18.742;2024-03-23T19:33:13;2.50;;;1.70;;
55190;SDS011;41070;50.360;18.742;2024-03-23T19:36:32;2.80;;;1.40;;
55190;SDS011;41070;50.360;18.742;2024-03-23T19:39:02;2.30;;;1.20;;
55190;SDS011;41070;50.360;18.742;2024-03-23T19:41:34;1.90;;;1.40;;
55190;SDS011;41070;50.360;18.742;2024-03-23T19:44:19;2.80;;;1.50;;
55190;SDS011;41070;50.360;18.742;2024-03-23T19:46:49;2.30;;;1.40;;
55190;SDS011;41070;50.360;18.742;2024-03-23T19:49:21;2.70;;;1.50;;
55190;SDS011;41070;50.360;18.742;2024-03-23T19:51:53;2.70;;;2.00;;
55190;SDS011;41070;50.360;18.742;2024-03-23T19:54:23;2.20;;;1.70;;
55190;SDS011;41070;50.360;18.742;2024-03-23T19:57:04;2.30;;;1.70;;
55190;SDS011;41070;50.360;18.742;2024-03-23T20:04:55;2.30;;;1.40;;
55190;SDS011;41070;50.360;18.742;2024-03-23T20:07:31;3.50;;;1.90;;
55190;SDS011;41070;50.360;18.742;2024-03-23T20:10:48;3.00;;;1.90;;
55190;SDS011;41070;50.360;18.742;2024-03-23T20:13:17;3.20;;;2.00;;
55190;SDS011;41070;50.360;18.742;2024-03-23T20:15:56;3.60;;;1.70;;
55190;SDS011;41070;50.360;18.742;2024-03-23T20:18:23;3.90;;;2.00;;
55190;SDS011;41070;50.360;18.742;2024-03-23T20:20:52;2.80;;;1.90;;
55190;SDS011;41070;50.360;18.742;2024-03-23T20:23:51;3.30;;;1.80;;
55190;SDS011;41070;50.360;18.742;2024-03-23T20:26:19;3.40;;;1.90;;
55190;SDS011;41070;50.360;18.742;2024-03-23T20:28:48;3.30;;;2.00;;
55190;SDS011;41070;50.360;18.742;2024-03-23T20:31:22;3.30;;;2.00;;
55190;SDS011;41070;50.360;18.742;2024-03-23T20:34:06;2.60;;;1.80;;
55190;SDS011;41070;50.360;18.742;2024-03-23T20:36:47;3.00;;;1.80;;
55190;SDS011;41070;50.360;18.742;2024-03-23T20:39:33;3.30;;;1.90;;
55190;SDS011;41070;50.360;18.742;2024-03-23T20:42:47;6.10;;;2.60;;
55190;SDS011;41070;50.360;18.742;2024-03-23T20:45:28;2.70;;;1.60;;
55190;SDS011;41070;50.360;18.742;2024-03-23T20:50:21;3.00;;;1.60;;
55190;SDS011;41070;50.360;18.742;2024-03-23T20:52:52;1.80;;;1.30;;
55190;SDS011;41070;50.360;18.742;2024-03-23T20:55:29;4.20;;;1.50;;
55190;SDS011;41070;50.360;18.742;2024-03-23T20:58:20;3.20;;;1.60;;
55190;SDS011;41070;50.360;18.742;2024-03-23T21:00:48;3.90;;;1.80;;
55190;SDS011;41070;50.360;18.742;2024-03-23T21:03:38;3.50;;;1.90;;
55190;SDS011;41070;50.360;18.742;2024-03-23T21:06:05;5.20;;;2.10;;
55190;SDS011;41070;50.360;18.742;2024-03-23T21:08:33;4.70;;;2.10;;
55190;SDS011;41070;50.360;18.742;2024-03-23T21:11:00;5.40;;;1.90;;
55190;SDS011;41070;50.360;18.742;2024-03-23T21:13:29;4.80;;;2.50;;
55190;SDS011;41070;50.360;18.742;2024-03-23T21:15:57;3.40;;;2.00;;
55190;SDS011;41070;50.360;18.742;2024-03-23T21:18:26;3.60;;;1.60;;
55190;SDS011;41070;50.360;18.742;2024-03-23T21:20:56;3.90;;;1.80;;
55190;SDS011;41070;50.360;18.742;2024-03-23T21:23:24;4.40;;;2.30;;
55190;SDS011;41070;50.360;18.742;2024-03-23T21:25:57;5.30;;;2.90;;
55190;SDS011;41070;50.360;18.742;2024-03-23T21:28:27;3.60;;;2.30;;
55190;SDS011;41070;50.360;18.742;2024-03-23T21:30:55;5.90;;;2.20;;
55190;SDS011;41070;50.360;18.742;2024-03-23T21:33:23;3.60;;;2.20;;
55190;SDS011;41070;50.360;18.742;2024-03-23T21:35:57;6.00;;;2.70;;
55190;SDS011;41070;50.360;18.742;2024-03-23T21:38:27;5.80;;;1.80;;
55190;SDS011;41070;50.360;18.742;2024-03-23T21:43:57;4.50;;;2.40;;
55190;SDS011;41070;50.360;18.742;2024-03-23T21:48:50;7.30;;;2.60;;
55190;SDS011;41070;50.360;18.742;2024-03-23T21:53:44;8.00;;;2.40;;
55190;SDS011;41070;50.360;18.742;2024-03-23T21:56:33;5.00;;;2.20;;
55190;SDS011;41070;50.360;18.742;2024-03-23T21:59:02;5.70;;;3.00;;
55190;SDS011;41070;50.360;18.742;2024-03-23T22:01:29;6.50;;;2.40;;
55190;SDS011;41070;50.360;18.742;2024-03-23T22:03:56;5.60;;;3.20;;
55190;SDS011;41070;50.360;18.742;2024-03-23T22:06:23;6.40;;;2.70;;
55190;SDS011;41070;50.360;18.742;2024-03-23T22:08:51;6.90;;;3.10;;
55190;SDS011;41070;50.360;18.742;2024-03-23T22:11:18;6.30;;;3.00;;
55190;SDS011;41070;50.360;18.742;2024-03-23T22:13:46;7.20;;;3.80;;
55190;SDS011;41070;50.360;18.742;2024-03-23T22:16:13;6.50;;;3.00;;
55190;SDS011;41070;50.360;18.742;2024-03-23T22:18:39;5.10;;;2.80;;
55190;SDS011;41070;50.360;18.742;2024-03-23T22:21:06;7.30;;;3.00;;
55190;SDS011;41070;50.360;18.742;2024-03-23T22:23:34;10.40;;;3.90;;
55190;SDS011;41070;50.360;18.742;2024-03-23T22:26:04;12.50;;;3.40;;
55190;SDS011;41070;50.360;18.742;2024-03-23T22:28:34;10.10;;;3.80;;
55190;SDS011;41070;50.360;18.742;2024-03-23T22:31:04;6.50;;;3.20;;
55190;SDS011;41070;50.360;18.742;2024-03-23T22:33:32;5.00;;;3.00;;
55190;SDS011;41070;50.360;18.742;2024-03-23T22:36:00;7.00;;;3.30;;
55190;SDS011;41070;50.360;18.742;2024-03-23T22:38:27;7.50;;;3.40;;
55190;SDS011;41070;50.360;18.742;2024-03-23T22:43:31;5.40;;;2.30;;
55190;SDS011;41070;50.360;18.742;2024-03-23T22:45:59;5.40;;;3.00;;
55190;SDS011;41070;50.360;18.742;2024-03-23T22:48:30;6.80;;;3.30;;
55190;SDS011;41070;50.360;18.742;2024-03-23T22:50:59;7.50;;;3.10;;
55190;SDS011;41070;50.360;18.742;2024-03-23T22:53:27;5.00;;;2.80;;
55190;SDS011;41070;50.360;18.742;2024-03-23T22:55:55;8.50;;;3.30;;
55190;SDS011;41070;50.360;18.742;2024-03-23T22:58:23;6.30;;;2.90;;
55190;SDS011;41070;50.360;18.742;2024-03-23T23:00:50;5.10;;;2.30;;
55190;SDS011;41070;50.360;18.742;2024-03-23T23:03:20;4.20;;;2.10;;
55190;SDS011;41070;50.360;18.742;2024-03-23T23:05:58;3.90;;;2.20;;
55190;SDS011;41070;50.360;18.742;2024-03-23T23:08:31;4.70;;;2.20;;
55190;SDS011;41070;50.360;18.742;2024-03-23T23:10:58;3.50;;;2.10;;
55190;SDS011;41070;50.360;18.742;2024-03-23T23:13:30;3.30;;;1.70;;
55190;SDS011;41070;50.360;18.742;2024-03-23T23:15:57;4.90;;;2.00;;
55190;SDS011;41070;50.360;18.742;2024-03-23T23:18:24;2.30;;;1.60;;
55190;SDS011;41070;50.360;18.742;2024-03-23T23:20:53;4.10;;;2.00;;
55190;SDS011;41070;50.360;18.742;2024-03-23T23:23:22;5.90;;;2.40;;
55190;SDS011;41070;50.360;18.742;2024-03-23T23:26:04;3.30;;;1.50;;
55190;SDS011;41070;50.360;18.742;2024-03-23T23:28:30;3.80;;;2.00;;
55190;SDS011;41070;50.360;18.742;2024-03-23T23:30:58;4.70;;;1.90;;
55190;SDS011;41070;50.360;18.742;2024-03-23T23:33:27;4.90;;;1.70;;
55190;SDS011;41070;50.360;18.742;2024-03-23T23:35:55;4.60;;;2.90;;
55190;SDS011;41070;50.360;18.742;2024-03-23T23:38:22;4.70;;;2.20;;
55190;SDS011;41070;50.360;18.742;2024-03-23T23:40:52;4.20;;;2.80;;
55190;SDS011;41070;50.360;18.742;2024-03-23T23:43:20;6.10;;;3.30;;
55190;SDS011;41070;50.360;18.742;2024-03-23T23:45:46;6.90;;;4.10;;
55190;SDS011;41070;50.360;18.742;2024-03-23T23:50:40;5.20;;;3.40;;
55190;SDS011;41070;50.360;18.742;2024-03-23T23:53:07;5.80;;;2.90;;
55190;SDS011;41070;50.360;18.742;2024-03-23T23:58:00;6.40;;;3.60;;
